Time;durP1;ratioP1;P1;durP2;ratioP2;P2;SDS_P1;SDS_P2;PMS_P1;PMS_P2;Temp;Humidity;BMP_temperature;BMP_pressure;BME280_temperature;BME280_humidity;BME280_pressure;Samples;Min_cycle;Max_cycle;Signal;HPM_P1;HPM_P2
2021/12/02 00:01:52;;;;;;;12.55;3.40;;;;;;;5.55;80.76;99877.69;5093330;28;20024;-65
2021/12/02 00:04:18;;;;;;;9.73;2.70;;;;;;;5.56;81.13;99879.44;5093379;28;20032;-64
2021/12/02 00:06:44;;;;;;;9.35;2.35;;;;;;;5.53;79.95;99875.06;5093246;28;20493;-64
2021/12/02 00:09:09;;;;;;;9.75;2.70;;;;;;;5.46;80.19;99875.81;5093019;28;20016;-65
2021/12/02 00:11:35;;;;;;;11.63;2.33;;;;;;;5.40;80.39;99881.84;5093200;28;20031;-65
2021/12/02 00:14:07;;;;;;;9.75;2.30;;;;;;;5.35;80.42;99878.25;5075231;28;20028;-65
2021/12/02 00:21:47;;;;;;;9.65;2.25;;;;;;;5.35;81.66;99883.47;5093521;28;20044;-65
2021/12/02 00:24:18;;;;;;;8.25;2.10;;;;;;;5.39;81.78;99881.78;5093137;28;20020;-64
2021/12/02 00:26:45;;;;;;;6.30;1.80;;;;;;;5.39;82.14;99874.81;5093273;28;20040;-65
2021/12/02 00:29:10;;;;;;;5.22;1.90;;;;;;;5.40;81.61;99884.47;5093325;28;20036;-64
2021/12/02 00:31:38;;;;;;;8.85;1.90;;;;;;;5.44;81.99;99883.66;5093189;28;20024;-64
2021/12/02 00:34:06;;;;;;;5.65;1.75;;;;;;;5.48;81.49;99876.69;5092760;28;20024;-65
2021/12/02 00:36:34;;;;;;;5.35;1.70;;;;;;;5.50;81.57;99875.00;5092888;28;20032;-64
2021/12/02 00:39:10;;;;;;;4.63;1.80;;;;;;;5.50;81.64;99867.13;5092665;28;20055;-65
2021/12/02 00:41:36;;;;;;;9.32;2.20;;;;;;;5.50;81.59;99862.78;5092916;28;20032;-64
2021/12/02 00:44:02;;;;;;;4.95;1.73;;;;;;;5.49;80.97;99857.53;5096442;28;20020;-64
2021/12/02 00:46:32;;;;;;;5.55;1.70;;;;;;;5.49;81.10;99858.41;5097086;28;20081;-64
2021/12/02 00:49:02;;;;;;;6.18;2.00;;;;;;;5.53;81.13;99869.81;5097041;28;20022;-64
2021/12/02 00:51:32;;;;;;;8.93;2.17;;;;;;;5.53;81.09;99868.06;5096834;28;20070;-64
2021/12/02 00:54:10;;;;;;;8.93;2.00;;;;;;;5.57;80.93;99862.84;5096810;28;20040;-64
2021/12/02 00:56:40;;;;;;;5.63;1.70;;;;;;;5.56;81.03;99861.97;5096901;28;20103;-63
2021/12/02 00:59:07;;;;;;;10.50;1.90;;;;;;;5.50;81.13;99865.41;5096870;28;20082;-64
2021/12/02 01:01:36;;;;;;;3.55;1.38;;;;;;;5.52;81.39;99870.66;5096657;28;20093;-65
2021/12/02 01:04:13;;;;;;;11.45;1.95;;;;;;;5.49;81.55;99874.13;5096541;28;20028;-64
2021/12/02 01:06:40;;;;;;;7.72;1.90;;;;;;;5.44;81.84;99870.56;5096588;28;20054;-64
2021/12/02 01:09:08;;;;;;;4.88;1.70;;;;;;;5.48;82.99;99874.06;5096585;28;20021;-64
2021/12/02 01:11:34;;;;;;;6.30;1.75;;;;;;;5.45;82.05;99879.28;5096295;28;20024;-64
2021/12/02 01:14:02;;;;;;;4.88;1.60;;;;;;;5.46;82.29;99876.69;5096055;28;20024;-64
2021/12/02 01:16:28;;;;;;;6.95;2.00;;;;;;;5.45;82.03;99880.16;5095935;28;20028;-64
2021/12/02 01:18:54;;;;;;;5.55;1.70;;;;;;;5.39;82.45;99866.94;5096000;28;20050;-65
2021/12/02 01:21:22;;;;;;;6.25;1.90;;;;;;;5.46;82.35;99875.81;5096257;28;20414;-64
2021/12/02 01:23:54;;;;;;;8.30;2.33;;;;;;;5.45;82.29;99872.31;5096258;28;20477;-64
2021/12/02 01:26:20;;;;;;;6.72;2.10;;;;;;;5.41;82.15;99878.34;5096369;28;20028;-64
2021/12/02 01:28:49;;;;;;;5.93;1.80;;;;;;;5.47;82.37;99886.28;5096576;28;20024;-64
2021/12/02 01:31:15;;;;;;;6.55;2.10;;;;;;;5.49;82.11;99884.59;5096039;28;20024;-64
2021/12/02 01:33:44;;;;;;;5.60;1.65;;;;;;;5.50;82.09;99888.09;5096105;28;20027;-65
2021/12/02 01:36:10;;;;;;;5.18;1.88;;;;;;;5.48;82.06;99893.31;5096284;28;20024;-65
2021/12/02 01:38:35;;;;;;;5.25;1.80;;;;;;;5.45;82.30;99877.56;5096038;28;20024;-65
2021/12/02 01:41:03;;;;;;;6.97;1.70;;;;;;;5.47;82.40;99896.78;5096341;28;20031;-65
2021/12/02 01:43:47;;;;;;;6.43;2.33;;;;;;;5.50;83.05;99902.06;5096061;28;20081;-65
2021/12/02 01:46:15;;;;;;;7.50;1.98;;;;;;;5.41;83.29;99896.69;5095816;28;20123;-65
2021/12/02 01:48:46;;;;;;;4.88;1.70;;;;;;;5.43;83.39;99902.81;5096107;28;20039;-66
2021/12/02 01:51:12;;;;;;;5.35;1.67;;;;;;;5.42;83.43;99902.81;5095845;28;20099;-66
2021/12/02 01:53:40;;;;;;;4.68;1.80;;;;;;;5.39;83.82;99911.50;5095496;28;20028;-65
2021/12/02 01:56:14;;;;;;;4.95;1.60;;;;;;;5.42;84.05;99914.16;5095343;28;20028;-65
2021/12/02 01:58:46;;;;;;;9.18;1.92;;;;;;;5.39;84.18;99908.00;5095456;28;20020;-65
2021/12/02 02:01:40;;;;;;;7.07;2.13;;;;;;;5.37;84.06;99907.97;5095622;28;20031;-65
2021/12/02 02:04:08;;;;;;;4.78;1.45;;;;;;;5.32;83.96;99900.91;5092403;28;20101;-65
2021/12/02 02:06:38;;;;;;;7.85;1.58;;;;;;;5.32;84.29;99909.66;5095572;28;20028;-65
2021/12/02 02:09:08;;;;;;;3.83;1.50;;;;;;;5.27;83.60;99899.09;5095496;28;20028;-65
2021/12/02 02:11:34;;;;;;;6.75;1.55;;;;;;;5.27;84.03;99895.59;5095480;28;20031;-64
2021/12/02 02:14:00;;;;;;;7.57;1.95;;;;;;;5.23;83.85;99896.41;5077265;28;20035;-65
2021/12/02 02:16:27;;;;;;;6.70;1.90;;;;;;;5.17;84.01;99898.91;5095424;28;20028;-65
2021/12/02 02:18:53;;;;;;;5.45;1.70;;;;;;;5.11;84.62;99893.56;5095282;28;20073;-65
2021/12/02 02:21:22;;;;;;;5.35;1.70;;;;;;;5.08;84.17;99897.00;5094923;28;20409;-65
2021/12/02 02:23:58;;;;;;;6.43;1.60;;;;;;;5.04;84.22;99895.19;5094993;28;20500;-65
2021/12/02 02:26:28;;;;;;;7.45;1.73;;;;;;;5.07;84.05;99899.59;5076946;28;20020;-64
2021/12/02 02:28:55;;;;;;;6.45;1.80;;;;;;;5.03;83.90;99893.44;5095192;28;20031;-66
2021/12/02 02:31:22;;;;;;;6.95;1.98;;;;;;;4.97;83.83;99888.09;5095018;28;20126;-65
2021/12/02 02:33:50;;;;;;;8.00;2.00;;;;;;;4.93;84.06;99889.78;5094989;28;20024;-65
2021/12/02 02:36:20;;;;;;;5.78;1.80;;;;;;;4.83;83.61;99882.59;5094868;28;20478;-65
2021/12/02 02:38:57;;;;;;;4.50;1.50;;;;;;;4.80;84.81;99892.09;5094871;28;20470;-64
2021/12/02 02:41:28;;;;;;;5.40;1.77;;;;;;;4.78;83.77;99884.25;5094838;28;20036;-64
2021/12/02 02:43:59;;;;;;;6.50;1.95;;;;;;;4.76;84.34;99883.34;5094778;28;20070;-65
2021/12/02 02:46:33;;;;;;;4.28;1.77;;;;;;;4.77;84.35;99890.34;5094703;28;20032;-65
2021/12/02 02:49:00;;;;;;;3.25;1.80;;;;;;;4.79;83.75;99883.38;5076454;28;20028;-64
2021/12/02 02:51:29;;;;;;;4.05;1.73;;;;;;;4.79;83.28;99888.63;5094888;28;20111;-64
2021/12/02 02:53:56;;;;;;;2.50;1.50;;;;;;;4.77;83.33;99875.50;5094647;28;20036;-65
2021/12/02 02:56:26;;;;;;;4.15;1.73;;;;;;;4.72;83.16;99874.56;5094645;28;20028;-65
2021/12/02 03:04:01;;;;;;;7.18;1.70;;;;;;;4.67;83.89;99884.06;5094281;28;20431;-64
2021/12/02 03:06:39;;;;;;;4.72;1.50;;;;;;;4.66;83.23;99894.47;5093532;28;20032;-65
2021/12/02 03:09:14;;;;;;;2.80;1.42;;;;;;;4.65;82.86;99893.59;5094257;28;20039;-65
2021/12/02 03:11:45;;;;;;;6.15;1.40;;;;;;;4.66;82.93;99884.00;5094248;28;20028;-65
2021/12/02 03:14:17;;;;;;;4.83;1.40;;;;;;;4.73;83.10;99892.00;5094127;28;20111;-64
2021/12/02 03:16:46;;;;;;;5.80;1.52;;;;;;;4.82;82.95;99899.16;5094281;28;20043;-64
2021/12/02 03:19:22;;;;;;;6.28;1.60;;;;;;;4.90;82.81;99913.25;5094120;28;20470;-64
2021/12/02 03:21:47;;;;;;;3.88;1.60;;;;;;;4.87;82.33;99909.69;5094038;28;20177;-65
2021/12/02 03:24:16;;;;;;;6.20;1.73;;;;;;;4.83;82.63;99913.13;5094004;28;20103;-64
2021/12/02 03:26:41;;;;;;;3.08;1.50;;;;;;;4.84;82.44;99912.25;5094104;28;20028;-65
2021/12/02 03:29:07;;;;;;;7.97;1.42;;;;;;;4.87;82.19;99910.59;5093887;28;20023;-64
2021/12/02 03:31:33;;;;;;;5.10;1.60;;;;;;;4.89;81.80;99916.75;5094165;28;20106;-64
2021/12/02 03:34:00;;;;;;;6.45;1.67;;;;;;;4.89;81.90;99913.25;5093957;28;20063;-64
2021/12/02 03:36:26;;;;;;;8.48;1.48;;;;;;;4.90;82.53;99909.78;5093730;28;20498;-64
2021/12/02 03:38:52;;;;;;;6.38;1.65;;;;;;;4.91;82.57;99904.56;5075591;28;20024;-64
2021/12/02 03:41:18;;;;;;;3.78;1.45;;;;;;;4.92;82.19;99915.91;5093807;28;20423;-64
2021/12/02 03:43:46;;;;;;;5.57;1.58;;;;;;;4.93;82.58;99920.31;5075495;28;20020;-63
2021/12/02 03:46:14;;;;;;;6.30;2.03;;;;;;;4.94;81.88;99922.06;5093769;28;20024;-64
2021/12/02 03:48:39;;;;;;;3.75;1.33;;;;;;;4.92;81.96;99916.78;5093613;28;20028;-65
2021/12/02 03:51:08;;;;;;;5.35;1.90;;;;;;;4.94;81.62;99917.72;5093577;28;20093;-64
2021/12/02 03:53:34;;;;;;;4.45;1.40;;;;;;;4.96;81.23;99920.34;5093488;28;20020;-64
2021/12/02 03:56:01;;;;;;;7.57;1.48;;;;;;;4.99;81.65;99923.03;5093473;28;20409;-65
2021/12/02 03:58:27;;;;;;;6.45;1.77;;;;;;;5.00;81.42;99916.94;5093321;28;20124;-64
2021/12/02 04:00:52;;;;;;;5.13;1.67;;;;;;;5.04;81.54;99916.13;5093406;28;20025;-64
2021/12/02 04:03:18;;;;;;;8.90;1.65;;;;;;;5.03;81.17;99919.59;5093404;28;20378;-64
2021/12/02 04:05:43;;;;;;;7.05;1.52;;;;;;;4.99;81.06;99912.56;5093569;28;20087;-64
2021/12/02 04:08:12;;;;;;;6.03;1.70;;;;;;;4.96;81.38;99905.50;5093358;28;20027;-65
2021/12/02 04:10:40;;;;;;;3.78;1.40;;;;;;;4.93;81.60;99907.22;5075139;28;20107;-65
2021/12/02 04:15:38;;;;;;;7.82;1.75;;;;;;;4.90;81.82;99891.44;5093512;28;20044;-64
2021/12/02 04:18:04;;;;;;;5.63;1.63;;;;;;;4.88;82.06;99893.13;5092735;28;20481;-65
2021/12/02 04:20:29;;;;;;;3.90;1.27;;;;;;;4.83;81.25;99893.06;5092933;28;20083;-64
2021/12/02 04:22:56;;;;;;;9.57;1.63;;;;;;;4.77;81.73;99895.56;5093147;28;20024;-64
2021/12/02 04:25:23;;;;;;;4.53;1.45;;;;;;;4.81;82.32;99899.13;5093303;28;20035;-64
2021/12/02 04:27:49;;;;;;;4.22;1.48;;;;;;;4.80;81.93;99902.59;5092969;28;20027;-64
2021/12/02 04:30:19;;;;;;;8.18;1.65;;;;;;;4.80;82.02;99906.09;5093117;28;20108;-64
2021/12/02 04:32:45;;;;;;;4.85;1.40;;;;;;;4.79;81.40;99906.94;5093007;28;20020;-64
2021/12/02 04:35:11;;;;;;;5.40;1.48;;;;;;;4.77;82.31;99913.91;5093062;28;20103;-64
2021/12/02 04:37:38;;;;;;;4.57;1.70;;;;;;;4.79;81.83;99927.88;5074953;28;20445;-64
2021/12/02 04:40:04;;;;;;;4.75;1.70;;;;;;;4.80;81.97;99936.59;5092911;28;20020;-64
2021/12/02 04:42:29;;;;;;;5.82;1.45;;;;;;;4.72;82.65;99936.47;5092981;28;20035;-65
2021/12/02 04:44:55;;;;;;;7.70;1.80;;;;;;;4.69;83.05;99944.25;5092900;28;20024;-65
2021/12/02 04:47:20;;;;;;;7.63;1.42;;;;;;;4.60;81.98;99946.69;5092808;28;20031;-65
2021/12/02 04:49:46;;;;;;;6.35;1.33;;;;;;;4.53;83.34;99938.72;5092952;28;20504;-65
2021/12/02 04:52:12;;;;;;;6.78;1.70;;;;;;;4.50;83.00;99945.63;5092933;28;20024;-65
2021/12/02 04:54:37;;;;;;;3.72;1.35;;;;;;;4.49;82.76;99939.50;5093071;28;20020;-65
2021/12/02 04:57:04;;;;;;;6.20;1.58;;;;;;;4.52;82.58;99938.69;5092795;28;20023;-64
2021/12/02 04:59:29;;;;;;;4.70;1.35;;;;;;;4.54;82.31;99934.38;5092719;28;20031;-64
2021/12/02 05:01:55;;;;;;;4.20;1.27;;;;;;;4.53;82.38;99929.97;5092741;28;20028;-64
2021/12/02 05:04:20;;;;;;;3.42;1.33;;;;;;;4.59;82.89;99937.09;5092776;28;20029;-64
2021/12/02 05:06:46;;;;;;;5.13;1.30;;;;;;;4.55;82.17;99932.66;5092735;28;20470;-64
2021/12/02 05:09:11;;;;;;;4.07;1.25;;;;;;;4.59;82.50;99940.59;5092475;28;20077;-64
2021/12/02 05:11:40;;;;;;;6.38;1.50;;;;;;;4.65;83.66;99943.31;5092917;28;20024;-65
2021/12/02 05:14:08;;;;;;;3.92;1.08;;;;;;;4.64;81.76;99945.91;5092492;28;20096;-65
2021/12/02 05:16:35;;;;;;;4.20;1.33;;;;;;;4.64;82.22;99946.78;5092531;28;20473;-64
2021/12/02 05:19:01;;;;;;;3.90;1.27;;;;;;;4.64;81.93;99965.09;5092577;28;20024;-64
2021/12/02 05:21:27;;;;;;;7.85;1.45;;;;;;;4.63;82.94;99979.03;5092363;28;20044;-65
2021/12/02 05:23:54;;;;;;;5.70;1.20;;;;;;;4.59;81.90;99978.94;5092574;28;20016;-65
2021/12/02 05:26:24;;;;;;;7.65;1.30;;;;;;;4.45;81.25;99978.63;5092548;28;20481;-66
2021/12/02 05:28:50;;;;;;;2.35;1.02;;;;;;;4.24;81.68;99974.72;5092484;28;20024;-66
2021/12/02 05:31:16;;;;;;;4.45;1.25;;;;;;;4.06;82.16;99966.47;5096122;28;20024;-65
2021/12/02 05:33:42;;;;;;;4.95;1.30;;;;;;;3.93;81.55;99970.50;5096193;28;20089;-64
2021/12/02 05:36:08;;;;;;;2.78;0.73;;;;;;;3.85;82.33;99973.78;5096194;28;20034;-64
2021/12/02 05:38:34;;;;;;;4.03;1.00;;;;;;;3.79;82.14;99969.31;5096121;28;20028;-65
2021/12/02 05:41:00;;;;;;;3.63;1.00;;;;;;;3.82;82.34;99972.00;5096047;28;20074;-65
2021/12/02 05:43:25;;;;;;;3.90;1.35;;;;;;;3.85;83.07;99968.56;5095789;28;20474;-64
2021/12/02 05:45:53;;;;;;;2.13;1.10;;;;;;;3.91;83.60;99958.28;5095867;28;20055;-65
2021/12/02 05:48:22;;;;;;;1.90;1.10;;;;;;;3.95;83.11;99963.63;5095169;28;20016;-64
2021/12/02 05:50:47;;;;;;;9.98;1.60;;;;;;;4.02;83.14;99964.63;5095382;28;20024;-65
2021/12/02 05:53:13;;;;;;;4.03;0.88;;;;;;;4.09;82.53;99958.69;5095495;28;20073;-64
2021/12/02 05:55:38;;;;;;;4.28;1.50;;;;;;;4.12;82.54;99963.13;5077399;28;20032;-64
2021/12/02 05:58:06;;;;;;;5.45;1.98;;;;;;;4.14;82.99;99966.63;5095556;28;20103;-64
2021/12/02 06:00:33;;;;;;;3.65;1.52;;;;;;;4.17;83.34;99979.78;5095734;28;20443;-64
2021/12/02 06:03:00;;;;;;;4.13;1.70;;;;;;;4.19;83.53;99975.47;5095820;28;20138;-64
2021/12/02 06:05:27;;;;;;;4.53;1.80;;;;;;;4.18;82.96;99982.41;5095635;28;20386;-64
2021/12/02 06:07:59;;;;;;;2.60;1.30;;;;;;;4.10;82.10;99968.28;5095516;28;20024;-64
2021/12/02 06:10:25;;;;;;;4.28;1.73;;;;;;;4.10;81.66;99970.03;5077358;28;20032;-64
2021/12/02 06:12:51;;;;;;;2.28;1.27;;;;;;;4.09;81.78;99976.13;5095175;28;20016;-64
2021/12/02 06:15:18;;;;;;;4.80;1.55;;;;;;;4.03;81.96;99978.59;5095408;28;20051;-64
2021/12/02 06:17:43;;;;;;;3.00;1.25;;;;;;;3.98;82.25;99976.75;5095299;28;20065;-64
2021/12/02 06:20:10;;;;;;;3.10;1.35;;;;;;;3.95;81.34;99981.91;5095402;28;20401;-64
2021/12/02 06:22:36;;;;;;;3.80;1.10;;;;;;;3.90;81.63;99978.31;5095233;28;20024;-64
2021/12/02 06:27:38;;;;;;;2.65;0.82;;;;;;;3.89;81.27;99991.31;5095017;28;20404;-64
2021/12/02 06:30:04;;;;;;;4.55;1.27;;;;;;;3.86;81.33;100001.72;5095175;28;20032;-64
2021/12/02 06:32:29;;;;;;;2.70;1.20;;;;;;;3.87;81.26;99999.13;5094973;28;20028;-64
2021/12/02 06:34:55;;;;;;;3.63;1.40;;;;;;;3.89;81.35;100000.03;5094952;28;20035;-64
2021/12/02 06:37:22;;;;;;;4.20;1.27;;;;;;;3.89;81.07;99999.16;5094999;28;20048;-64
2021/12/02 06:39:47;;;;;;;1.25;0.75;;;;;;;3.80;81.42;99984.16;5094616;28;20093;-64
2021/12/02 06:42:14;;;;;;;3.78;0.98;;;;;;;3.77;81.55;99989.31;5076379;28;20078;-64
2021/12/02 06:44:39;;;;;;;2.65;0.93;;;;;;;3.82;82.49;99998.16;5094923;28;20020;-64
2021/12/02 06:47:05;;;;;;;2.80;1.20;;;;;;;3.78;81.32;99993.69;5094689;28;20106;-64
2021/12/02 06:49:32;;;;;;;3.72;1.17;;;;;;;3.85;82.91;100000.81;5094716;28;20066;-64
2021/12/02 06:51:58;;;;;;;2.85;1.30;;;;;;;3.91;81.19;100007.94;5094567;28;20024;-64
2021/12/02 06:54:23;;;;;;;2.45;0.77;;;;;;;4.02;82.18;100024.75;5094438;28;20348;-64
2021/12/02 06:56:48;;;;;;;3.03;1.25;;;;;;;4.04;81.67;100028.28;5076163;28;20024;-64
2021/12/02 06:59:14;;;;;;;2.75;1.20;;;;;;;4.03;81.74;100033.50;5094491;28;20077;-64
2021/12/02 07:01:39;;;;;;;2.22;1.33;;;;;;;4.04;82.20;100037.88;5094374;28;20089;-64
2021/12/02 07:04:07;;;;;;;3.92;1.60;;;;;;;4.01;82.01;100022.97;5094486;28;20028;-64
2021/12/02 07:06:36;;;;;;;4.50;1.67;;;;;;;3.93;82.61;100016.69;5094398;28;20035;-64
2021/12/02 07:09:01;;;;;;;3.92;1.30;;;;;;;3.94;81.79;100032.41;5094281;28;20038;-65
2021/12/02 07:11:27;;;;;;;4.32;1.20;;;;;;;3.94;82.96;100037.66;5094178;28;20027;-64
2021/12/02 07:14:02;;;;;;;2.33;1.42;;;;;;;3.96;82.78;100040.28;5094158;28;20016;-64
2021/12/02 07:16:27;;;;;;;3.03;1.67;;;;;;;3.96;82.28;100040.28;5094281;28;20028;-64
2021/12/02 07:18:56;;;;;;;5.07;2.42;;;;;;;3.90;81.97;100055.84;5094175;28;20035;-64
2021/12/02 07:21:22;;;;;;;6.88;2.88;;;;;;;3.84;82.50;100053.94;5093741;28;20386;-64
2021/12/02 07:23:47;;;;;;;8.27;3.00;;;;;;;3.84;82.62;100056.53;5093998;28;20024;-64
2021/12/02 07:26:13;;;;;;;6.68;2.28;;;;;;;3.76;82.59;100039.78;5093761;28;20099;-64
2021/12/02 07:28:38;;;;;;;5.05;2.00;;;;;;;3.84;83.46;100064.38;5093883;28;20012;-64
2021/12/02 07:31:06;;;;;;;2.97;1.40;;;;;;;3.81;81.77;100058.19;5093883;28;20028;-64
2021/12/02 07:33:36;;;;;;;4.35;1.40;;;;;;;3.79;83.00;100042.47;5093905;28;20592;-64
2021/12/02 07:36:02;;;;;;;4.88;1.50;;;;;;;3.79;82.19;100054.66;5075498;28;20125;-64
2021/12/02 07:38:28;;;;;;;3.83;1.40;;;;;;;3.76;82.22;100051.13;5093391;28;20062;-64
2021/12/02 07:40:54;;;;;;;2.25;1.38;;;;;;;3.70;82.40;100047.47;5092931;28;20024;-63
2021/12/02 07:43:21;;;;;;;5.82;1.70;;;;;;;3.76;82.58;100058.97;5092979;28;20118;-64
2021/12/02 07:45:46;;;;;;;3.17;1.73;;;;;;;3.82;82.24;100057.38;5093397;28;20126;-65
2021/12/02 07:48:14;;;;;;;2.65;1.33;;;;;;;3.89;81.72;100069.72;5092919;28;20473;-64
2021/12/02 07:50:40;;;;;;;6.22;1.70;;;;;;;3.89;82.51;100068.00;5092985;28;20024;-64
2021/12/02 07:53:07;;;;;;;5.63;1.55;;;;;;;3.92;82.17;100070.69;5092400;28;20112;-64
2021/12/02 07:55:40;;;;;;;5.15;2.17;;;;;;;3.93;82.41;100071.56;5092974;28;20024;-65
2021/12/02 07:58:06;;;;;;;;;;;;;;;4.02;82.11;100084.84;5093596;28;20028;-65
2021/12/02 08:00:32;;;;;;;5.75;1.75;;;;;;;3.96;82.65;100077.75;5092776;28;20400;-64
2021/12/02 08:02:57;;;;;;;6.30;2.40;;;;;;;3.98;81.56;100077.78;5093093;28;20043;-64
2021/12/02 08:05:26;;;;;;;5.22;2.30;;;;;;;3.98;81.66;100078.69;5092707;28;20440;-64
2021/12/02 08:07:56;;;;;;;9.07;2.45;;;;;;;3.98;82.40;100078.69;5093125;28;20036;-64
2021/12/02 08:10:22;;;;;;;4.95;1.80;;;;;;;3.98;81.89;100080.41;5092438;28;20107;-64
2021/12/02 08:12:49;;;;;;;3.50;1.35;;;;;;;4.01;81.97;100085.72;5092814;28;20107;-64
2021/12/02 08:15:24;;;;;;;5.30;1.83;;;;;;;3.99;81.87;100082.19;5092566;28;20028;-64
2021/12/02 08:17:49;;;;;;;3.38;1.60;;;;;;;3.93;81.86;100082.91;5092727;28;20455;-64
2021/12/02 08:20:16;;;;;;;5.85;1.60;;;;;;;3.85;81.78;100076.59;5092186;28;20154;-64
2021/12/02 08:22:42;;;;;;;4.95;1.50;;;;;;;3.81;82.79;100087.81;5092398;28;20134;-64
2021/12/02 08:25:08;;;;;;;6.28;1.70;;;;;;;3.86;82.93;100095.81;5092293;28;20123;-64
2021/12/02 08:27:33;;;;;;;2.92;1.80;;;;;;;3.86;83.15;100101.03;5092437;28;20020;-63
2021/12/02 08:30:02;;;;;;;6.65;1.73;;;;;;;3.92;82.31;100104.66;5092655;28;20032;-64
2021/12/02 08:32:28;;;;;;;3.55;1.55;;;;;;;4.09;83.70;100109.44;5074331;28;20032;-63
2021/12/02 08:34:54;;;;;;;4.68;1.90;;;;;;;4.29;82.54;100107.31;5092674;28;20026;-64
2021/12/02 08:37:20;;;;;;;5.47;1.90;;;;;;;4.47;81.46;100106.00;5092390;28;20024;-63
2021/12/02 08:39:47;;;;;;;4.82;2.10;;;;;;;4.68;81.71;100110.84;5092227;28;20024;-64
2021/12/02 08:42:12;;;;;;;5.38;1.88;;;;;;;4.94;80.95;100121.91;5092620;28;20441;-64
2021/12/02 08:44:40;;;;;;;5.95;2.05;;;;;;;5.13;79.66;100123.16;5092487;28;20466;-64
2021/12/02 08:47:08;;;;;;;5.15;2.00;;;;;;;5.15;79.17;100131.06;5092291;28;20089;-64
2021/12/02 08:49:33;;;;;;;8.05;2.38;;;;;;;5.33;80.14;100141.03;5074211;28;20059;-65
2021/12/02 08:51:58;;;;;;;7.60;3.28;;;;;;;5.57;79.82;100130.13;5092494;28;20056;-63
2021/12/02 08:54:23;;;;;;;5.30;2.30;;;;;;;5.92;79.49;100139.59;5092025;28;20355;-63
2021/12/02 08:56:49;;;;;;;9.85;3.63;;;;;;;6.31;78.94;100163.88;5074089;28;20024;-64
2021/12/02 08:59:16;;;;;;;8.57;3.78;;;;;;;6.49;77.69;100172.06;5092439;28;20035;-65
2021/12/02 09:01:41;;;;;;;7.70;2.97;;;;;;;6.31;76.25;100170.00;5092353;28;20047;-64
2021/12/02 09:04:07;;;;;;;9.30;3.28;;;;;;;6.10;76.34;100164.38;5092450;28;20024;-64
2021/12/02 09:06:33;;;;;;;6.70;3.47;;;;;;;5.82;76.90;100169.06;5096423;28;20036;-64
2021/12/02 09:08:59;;;;;;;7.53;3.10;;;;;;;5.61;77.33;100168.66;5096107;28;20024;-64
2021/12/02 09:11:30;;;;;;;5.57;2.22;;;;;;;5.55;78.26;100181.66;5096156;28;20027;-64
2021/12/02 09:13:58;;;;;;;5.90;2.75;;;;;;;5.38;77.17;100184.81;5096032;28;20032;-64
2021/12/02 09:16:25;;;;;;;6.07;2.40;;;;;;;5.35;77.29;100192.59;5095984;28;20024;-64
2021/12/02 09:18:50;;;;;;;6.40;2.20;;;;;;;5.28;77.44;100191.59;5095978;28;20442;-64
2021/12/02 09:21:16;;;;;;;4.50;2.17;;;;;;;5.19;78.08;100201.88;5095639;28;20051;-65
2021/12/02 09:23:41;;;;;;;5.85;2.20;;;;;;;5.10;77.48;100191.19;5095895;28;20028;-64
2021/12/02 09:26:07;;;;;;;5.47;2.25;;;;;;;5.04;78.49;100201.53;5095511;28;20035;-66
2021/12/02 09:28:32;;;;;;;7.43;2.33;;;;;;;5.03;78.41;100197.13;5095699;28;20024;-65
2021/12/02 09:30:57;;;;;;;7.45;2.35;;;;;;;4.97;79.20;100195.28;5095795;28;20025;-64
2021/12/02 09:33:23;;;;;;;5.55;2.30;;;;;;;4.97;79.79;100208.38;5095847;28;20449;-65
2021/12/02 09:35:48;;;;;;;11.20;2.75;;;;;;;4.95;79.78;100206.56;5095023;28;20412;-65
2021/12/02 09:38:14;;;;;;;7.40;2.53;;;;;;;4.95;79.46;100207.44;5095587;28;20466;-65
2021/12/02 09:40:41;;;;;;;7.90;2.90;;;;;;;5.00;79.80;100212.78;5095324;28;20115;-65
2021/12/02 09:43:10;;;;;;;10.07;2.70;;;;;;;5.14;80.66;100213.06;5095507;28;20028;-65
2021/12/02 09:45:37;;;;;;;9.75;2.40;;;;;;;5.23;79.26;100210.69;5095658;28;20016;-64
2021/12/02 09:48:03;;;;;;;7.35;2.47;;;;;;;5.28;79.35;100209.94;5095595;28;20020;-64
2021/12/02 09:50:34;;;;;;;10.65;2.63;;;;;;;5.36;79.85;100209.22;5095390;28;20032;-65
2021/12/02 09:53:14;;;;;;;6.47;2.42;;;;;;;5.33;77.59;100190.81;5077576;28;20038;-65
2021/12/02 09:58:08;;;;;;;5.57;2.28;;;;;;;5.60;80.18;100191.38;5095405;28;20174;-65
2021/12/02 10:00:42;;;;;;;4.93;2.42;;;;;;;6.05;79.68;100200.16;5095144;28;20023;-64
2021/12/02 10:03:23;;;;;;;6.45;2.20;;;;;;;6.50;78.66;100200.94;5095077;28;20416;-65
2021/12/02 10:06:07;;;;;;;9.25;2.30;;;;;;;7.05;79.50;100203.53;5094945;28;20023;-67
2021/12/02 10:08:51;;;;;;;8.23;2.30;;;;;;;7.49;75.59;100201.53;5094908;28;20032;-65
2021/12/02 10:11:38;;;;;;;7.07;2.33;;;;;;;7.82;74.59;100205.44;5095104;28;20051;-64
2021/12/02 10:14:16;;;;;;;4.88;1.90;;;;;;;8.03;71.91;100216.19;5095210;28;20027;-64
2021/12/02 10:16:44;;;;;;;6.05;2.15;;;;;;;8.11;70.53;100211.00;5075886;28;20024;-64
2021/12/02 10:19:13;;;;;;;4.32;2.00;;;;;;;8.10;69.54;100209.25;5094882;28;20032;-65
2021/12/02 10:21:45;;;;;;;9.48;2.38;;;;;;;8.01;69.77;100217.94;5094468;28;20124;-63
2021/12/02 10:24:29;;;;;;;7.68;2.70;;;;;;;8.16;71.74;100224.22;5094810;28;20039;-64
2021/12/02 10:27:03;;;;;;;8.38;2.30;;;;;;;8.35;70.06;100217.38;5094399;28;20034;-63
2021/12/02 10:29:33;;;;;;;8.85;2.47;;;;;;;8.24;68.60;100228.69;5094677;28;20035;-63
2021/12/02 10:32:07;;;;;;;6.72;1.88;;;;;;;8.01;68.43;100223.19;5094565;28;20028;-63
2021/12/02 10:34:45;;;;;;;5.85;2.10;;;;;;;7.85;68.67;100230.91;5094677;28;20050;-63
2021/12/02 10:37:11;;;;;;;6.10;1.90;;;;;;;7.43;67.61;100227.72;5094142;28;20032;-64
2021/12/02 10:39:36;;;;;;;4.68;2.03;;;;;;;7.23;70.38;100230.06;5093901;28;20063;-63
2021/12/02 10:42:07;;;;;;;4.10;1.83;;;;;;;7.11;71.25;100235.19;5093862;28;20480;-63
2021/12/02 10:44:34;;;;;;;4.35;1.80;;;;;;;7.08;70.89;100229.88;5094213;28;20035;-63
2021/12/02 10:47:03;;;;;;;7.28;2.20;;;;;;;6.97;72.37;100234.06;5094300;28;20074;-64
2021/12/02 10:49:34;;;;;;;4.57;2.17;;;;;;;7.00;72.08;100239.38;5094358;28;20027;-64
2021/12/02 10:52:03;;;;;;;5.82;2.60;;;;;;;7.23;72.25;100240.59;5093930;28;20036;-64
2021/12/02 10:54:33;;;;;;;6.53;2.20;;;;;;;7.43;70.91;100246.13;5094175;28;20035;-63
2021/12/02 10:57:06;;;;;;;7.72;2.00;;;;;;;7.66;71.66;100249.06;5094009;28;20024;-63
2021/12/02 10:59:33;;;;;;;6.55;2.13;;;;;;;7.95;71.76;100249.41;5094340;28;20024;-63
2021/12/02 11:02:25;;;;;;;4.70;2.00;;;;;;;8.08;71.68;100246.94;5094020;28;20032;-64
2021/12/02 11:05:21;;;;;;;2.92;1.58;;;;;;;8.20;68.44;100242.69;5089436;28;20132;-63
2021/12/02 11:08:08;;;;;;;6.13;1.80;;;;;;;8.62;69.71;100246.66;5075646;28;20307;-64
2021/12/02 11:10:39;;;;;;;3.72;1.33;;;;;;;8.80;67.02;100253.81;5093978;28;20020;-64
2021/12/02 11:13:06;;;;;;;5.68;1.55;;;;;;;8.70;66.42;100244.97;5093326;28;20020;-63
2021/12/02 11:15:34;;;;;;;4.35;1.48;;;;;;;8.38;66.77;100246.41;5093713;28;20027;-64
2021/12/02 11:18:03;;;;;;;3.53;1.27;;;;;;;8.03;67.14;100260.03;5093760;28;20169;-64
2021/12/02 11:20:30;;;;;;;4.05;1.33;;;;;;;7.62;68.09;100256.88;5093315;28;20043;-63
2021/12/02 11:23:06;;;;;;;3.35;1.33;;;;;;;7.48;69.78;100260.22;5093593;28;20456;-64
2021/12/02 11:25:53;;;;;;;3.30;1.58;;;;;;;7.41;69.40;100271.53;5093496;28;20043;-64
2021/12/02 11:28:22;;;;;;;4.28;1.55;;;;;;;7.44;71.12;100274.19;5093210;28;20027;-64
2021/12/02 11:30:48;;;;;;;3.40;1.48;;;;;;;7.58;70.16;100270.84;5093392;28;20482;-63
2021/12/02 11:33:18;;;;;;;5.03;1.38;;;;;;;7.93;70.19;100272.22;5093476;28;20035;-63
2021/12/02 11:35:45;;;;;;;3.38;1.20;;;;;;;8.39;70.91;100262.19;5093114;28;20028;-63
2021/12/02 11:38:24;;;;;;;1.83;1.27;;;;;;;8.93;69.07;100268.84;5093416;28;20065;-63
2021/12/02 11:40:52;;;;;;;1.80;1.27;;;;;;;9.21;65.20;100274.34;5093068;28;20038;-62
2021/12/02 11:43:25;;;;;;;3.72;1.92;;;;;;;9.06;64.56;100271.59;5093592;28;20130;-62
2021/12/02 11:45:52;;;;;;;3.85;1.08;;;;;;;9.24;66.20;100269.97;5074822;28;20032;-62
2021/12/02 11:48:23;;;;;;;4.43;1.30;;;;;;;9.35;65.97;100269.16;5074853;28;20027;-64
2021/12/02 11:50:55;;;;;;;5.20;1.23;;;;;;;9.23;64.59;100268.19;5093062;28;20028;-63
2021/12/02 11:53:22;;;;;;;3.25;1.27;;;;;;;8.90;64.84;100262.66;5093052;28;20270;-65
2021/12/02 11:55:54;;;;;;;3.15;1.27;;;;;;;8.40;65.65;100258.72;5093089;28;20024;-63
2021/12/02 11:58:20;;;;;;;2.90;1.60;;;;;;;8.33;67.76;100250.72;5093107;28;20084;-63
2021/12/02 12:00:46;;;;;;;1.48;1.00;;;;;;;8.10;66.69;100261.88;5092924;28;20024;-63
2021/12/02 12:03:14;;;;;;;3.28;1.00;;;;;;;7.74;67.81;100249.16;5092834;28;20020;-63